Time;durP1;ratioP1;P1;durP2;ratioP2;P2;SDS_P1;SDS_P2;PMS_P1;PMS_P2;Temp;Humidity;BMP_temperature;BMP_pressure;BME280_temperature;BME280_humidity;BME280_pressure;Samples;Min_cycle;Max_cycle;Signal;HPM_P1;HPM_P2
2021/07/11 00:02:08;;;;;;;7.68;4.03;;;14.60;99.90;;;;;;5024278;28;20033;-87
2021/07/11 00:04:34;;;;;;;6.93;3.40;;;14.60;99.90;;;;;;5023311;28;20037;-88
2021/07/11 00:06:59;;;;;;;11.38;3.55;;;14.50;99.90;;;;;;5029735;28;20037;-87
2021/07/11 00:09:25;;;;;;;6.43;3.53;;;14.60;99.90;;;;;;5031762;28;20469;-88
2021/07/11 00:11:51;;;;;;;5.65;3.00;;;14.50;99.90;;;;;;5028449;28;20021;-88
2021/07/11 00:14:16;;;;;;;7.68;3.33;;;14.40;99.90;;;;;;5028712;28;20060;-87
2021/07/11 00:16:42;;;;;;;5.28;3.10;;;14.40;99.90;;;;;;5030704;28;20022;-87
2021/07/11 00:19:08;;;;;;;3.95;2.97;;;14.40;99.90;;;;;;5028806;28;20088;-88
2021/07/11 00:21:33;;;;;;;4.22;3.08;;;14.30;99.90;;;;;;5031631;28;20025;-88
2021/07/11 00:23:59;;;;;;;5.47;3.40;;;14.30;99.90;;;;;;5029716;28;20021;-88
2021/07/11 00:26:25;;;;;;;4.38;3.50;;;14.30;99.90;;;;;;5029534;28;20061;-88
2021/07/11 00:28:50;;;;;;;4.18;3.10;;;14.40;99.90;;;;;;5028234;28;20036;-87
2021/07/11 00:31:16;;;;;;;5.43;3.15;;;14.40;99.90;;;;;;5029968;28;20048;-87
2021/07/11 00:33:42;;;;;;;12.13;3.42;;;14.30;99.90;;;;;;5030272;28;20033;-87
2021/07/11 00:36:07;;;;;;;8.27;4.30;;;14.30;99.90;;;;;;5031647;28;20125;-87
2021/07/11 00:38:33;;;;;;;4.53;3.53;;;14.20;99.90;;;;;;5028338;28;20040;-87
2021/07/11 00:40:59;;;;;;;6.03;3.30;;;14.20;99.90;;;;;;5028674;28;20022;-87
2021/07/11 00:43:25;;;;;;;6.43;3.63;;;14.10;99.90;;;;;;5027700;28;20472;-87
2021/07/11 00:45:51;;;;;;;6.30;3.10;;;14.00;99.90;;;;;;5029854;28;20065;-87
2021/07/11 00:48:18;;;;;;;6.32;3.20;;;14.00;99.90;;;;;;5031540;28;20040;-88
2021/07/11 00:50:45;;;;;;;5.20;3.85;;;14.00;99.90;;;;;;5029982;28;20030;-87
2021/07/11 00:53:10;;;;;;;4.40;3.58;;;14.00;99.90;;;;;;5029981;28;20104;-88
2021/07/11 00:55:36;;;;;;;6.53;3.10;;;14.00;99.90;;;;;;5028495;28;20160;-87
2021/07/11 00:58:03;;;;;;;7.13;3.80;;;14.00;99.90;;;;;;5028241;28;20025;-87
2021/07/11 01:00:29;;;;;;;6.68;3.58;;;14.00;99.90;;;;;;5028896;28;20018;-88
2021/07/11 01:03:08;;;;;;;5.93;3.60;;;13.90;99.90;;;;;;5031391;28;20040;-88
2021/07/11 01:05:35;;;;;;;5.53;3.73;;;13.90;99.90;;;;;;5028042;28;20053;-87
2021/07/11 01:08:10;;;;;;;5.15;3.28;;;13.90;99.90;;;;;;5028060;28;20033;-88
2021/07/11 01:11:04;;;;;;;5.97;3.08;;;13.90;99.90;;;;;;5060340;28;20504;-87
2021/07/11 01:13:31;;;;;;;5.60;3.20;;;13.90;99.90;;;;;;5021314;28;20062;-87
2021/07/11 01:16:01;;;;;;;5.55;3.17;;;13.90;99.90;;;;;;5029874;28;20021;-88
2021/07/11 01:18:29;;;;;;;5.97;3.53;;;13.90;99.90;;;;;;5029440;28;20025;-88
2021/07/11 01:21:05;;;;;;;4.65;3.83;;;13.90;99.90;;;;;;5030332;28;20018;-87
2021/07/11 01:23:52;;;;;;;5.90;3.30;;;13.90;99.90;;;;;;5027938;28;20109;-87
2021/07/11 01:26:18;;;;;;;5.22;3.50;;;13.80;99.90;;;;;;5028981;28;20042;-87
2021/07/11 01:28:48;;;;;;;6.20;3.50;;;13.80;99.90;;;;;;5030112;28;20036;-88
2021/07/11 01:31:14;;;;;;;9.40;3.47;;;13.80;99.90;;;;;;5028581;28;20384;-88
2021/07/11 01:33:43;;;;;;;4.78;3.72;;;13.80;99.90;;;;;;5029722;28;20029;-88
2021/07/11 01:36:11;;;;;;;4.97;3.53;;;13.70;99.90;;;;;;5030478;28;20065;-88
2021/07/11 01:38:37;;;;;;;5.50;3.67;;;13.70;99.90;;;;;;5029816;28;20079;-89
2021/07/11 01:41:04;;;;;;;5.68;3.80;;;13.70;99.90;;;;;;5030855;28;20431;-88
2021/07/11 01:43:30;;;;;;;6.32;3.58;;;13.70;99.90;;;;;;5032805;28;20060;-89
2021/07/11 01:45:58;;;;;;;4.90;3.28;;;13.70;99.90;;;;;;5031330;28;20987;-88
2021/07/11 01:48:25;;;;;;;6.57;3.55;;;13.60;99.90;;;;;;5034473;28;20052;-88
2021/07/11 01:50:53;;;;;;;7.40;4.22;;;13.70;99.90;;;;;;5032836;28;20025;-88
2021/07/11 01:53:31;;;;;;;5.57;3.80;;;13.70;99.90;;;;;;5027494;28;20075;-89
2021/07/11 01:55:58;;;;;;;6.20;3.30;;;13.60;99.90;;;;;;5029265;28;20017;-88
2021/07/11 01:58:24;;;;;;;8.23;3.58;;;13.60;99.90;;;;;;5034039;28;20068;-89
2021/07/11 02:00:53;;;;;;;7.43;4.40;;;13.60;99.90;;;;;;5031286;28;20526;-88
2021/07/11 02:03:21;;;;;;;7.05;3.90;;;13.50;99.90;;;;;;5046676;28;20061;-87
2021/07/11 02:05:49;;;;;;;7.80;4.70;;;13.50;99.90;;;;;;5032620;28;20026;-89
2021/07/11 02:08:15;;;;;;;5.40;3.83;;;13.50;99.90;;;;;;5032969;28;20642;-89
2021/07/11 02:10:44;;;;;;;10.05;3.60;;;13.50;99.90;;;;;;5030404;28;20029;-89
2021/07/11 02:13:28;;;;;;;10.23;3.83;;;13.50;99.90;;;;;;5029524;28;20381;-89
2021/07/11 02:15:59;;;;;;;7.97;3.65;;;13.50;99.90;;;;;;5018756;28;20021;-90
2021/07/11 02:18:26;;;;;;;4.70;3.40;;;13.40;99.90;;;;;;5032703;28;20025;-89
2021/07/11 02:20:54;;;;;;;5.75;3.83;;;13.50;99.90;;;;;;5031793;28;20021;-90
2021/07/11 02:23:25;;;;;;;6.70;3.95;;;13.40;99.90;;;;;;5030726;28;20064;-89
2021/07/11 02:25:52;;;;;;;8.52;4.10;;;13.40;99.90;;;;;;5055635;28;20032;-89
2021/07/11 02:28:20;;;;;;;9.55;4.00;;;13.30;99.90;;;;;;5019887;28;20033;-90
2021/07/11 02:30:55;;;;;;;4.43;3.58;;;13.30;99.90;;;;;;5032399;28;20022;-88
2021/07/11 02:33:37;;;;;;;7.20;3.40;;;13.40;99.90;;;;;;5034170;28;20032;-89
2021/07/11 02:36:09;;;;;;;6.15;4.22;;;13.40;99.90;;;;;;5033962;28;20096;-89
2021/07/11 02:38:49;;;;;;;5.72;4.63;;;13.30;99.90;;;;;;5032149;28;20579;-88
2021/07/11 02:41:18;;;;;;;8.20;4.60;;;13.40;99.90;;;;;;5033491;28;20022;-89
2021/07/11 02:43:45;;;;;;;5.57;3.95;;;13.40;99.90;;;;;;5033619;28;20109;-89
2021/07/11 02:46:14;;;;;;;4.57;3.13;;;13.40;99.90;;;;;;5032124;28;20025;-89
2021/07/11 02:48:41;;;;;;;6.95;3.80;;;13.40;99.90;;;;;;5030882;28;20052;-89
2021/07/11 02:51:09;;;;;;;5.68;3.65;;;13.50;99.90;;;;;;5031992;28;20029;-89
2021/07/11 02:53:35;;;;;;;4.90;3.58;;;13.50;99.90;;;;;;5030778;28;20120;-89
2021/07/11 02:56:02;;;;;;;5.35;4.28;;;13.50;99.90;;;;;;5032730;28;20480;-90
2021/07/11 02:58:30;;;;;;;5.22;4.22;;;13.50;99.90;;;;;;5029978;28;20037;-90
2021/07/11 03:00:56;;;;;;;6.47;4.03;;;13.50;99.90;;;;;;5032694;28;20021;-89
2021/07/11 03:03:23;;;;;;;7.28;4.05;;;13.60;99.90;;;;;;5049314;28;20032;-89
2021/07/11 03:05:49;;;;;;;6.93;3.80;;;13.60;99.90;;;;;;5029693;28;20033;-90
2021/07/11 03:08:15;;;;;;;6.70;4.63;;;13.70;99.90;;;;;;5029445;28;20037;-88
2021/07/11 03:10:42;;;;;;;7.70;3.80;;;13.70;99.90;;;;;;5031290;28;20475;-90
2021/07/11 03:13:09;;;;;;;6.70;3.97;;;13.70;99.90;;;;;;5031736;28;20040;-89
2021/07/11 03:15:36;;;;;;;7.97;4.47;;;13.70;99.90;;;;;;5030593;28;20025;-89
2021/07/11 03:18:03;;;;;;;6.13;4.15;;;13.70;99.90;;;;;;5031209;28;20021;-89
2021/07/11 03:20:29;;;;;;;13.02;4.13;;;13.80;99.90;;;;;;5031215;28;20388;-90
2021/07/11 03:22:56;;;;;;;4.65;3.88;;;13.80;99.90;;;;;;5039828;28;20034;-89
2021/07/11 03:25:23;;;;;;;5.03;3.83;;;13.90;99.90;;;;;;5031577;28;20440;-89
2021/07/11 03:27:51;;;;;;;6.32;4.07;;;13.90;99.90;;;;;;5032776;28;20554;-89
2021/07/11 03:30:20;;;;;;;6.65;4.72;;;14.00;99.90;;;;;;5033101;28;20075;-90
2021/07/11 03:32:52;;;;;;;7.05;3.90;;;14.10;99.90;;;;;;5030617;28;20495;-89
2021/07/11 03:35:22;;;;;;;8.05;4.03;;;14.20;99.90;;;;;;5029736;28;20366;-88
2021/07/11 03:37:48;;;;;;;7.03;4.80;;;14.30;99.90;;;;;;5031351;28;20053;-88
2021/07/11 03:40:20;;;;;;;5.35;4.53;;;14.40;99.90;;;;;;5030917;28;20355;-91
2021/07/11 03:42:48;;;;;;;9.32;4.40;;;14.50;99.90;;;;;;5030770;28;20025;-90
2021/07/11 03:45:15;;;;;;;5.22;4.15;;;14.60;99.90;;;;;;5032814;28;20420;-90
2021/07/11 03:48:07;;;;;;;5.10;3.88;;;14.90;99.90;;;;;;5030814;28;20033;-87
2021/07/11 03:50:35;;;;;;;8.07;4.60;;;15.30;99.90;;;;;;5029202;28;20080;-89
2021/07/11 03:53:04;;;;;;;8.75;5.35;;;15.60;99.90;;;;;;5029011;28;20071;-88
2021/07/11 03:55:32;;;;;;;8.50;4.97;;;15.90;99.90;;;;;;5031350;28;20374;-89
2021/07/11 03:57:59;;;;;;;6.07;4.68;;;16.10;99.90;;;;;;5029423;28;20041;-89
2021/07/11 04:00:26;;;;;;;7.03;4.22;;;16.10;99.90;;;;;;5028599;28;20100;-89
2021/07/11 04:02:53;;;;;;;5.43;4.18;;;16.40;99.90;;;;;;5029203;28;20025;-89
2021/07/11 04:05:26;;;;;;;4.88;4.13;;;17.10;99.90;;;;;;5029745;28;20109;-89
2021/07/11 04:07:53;;;;;;;6.72;4.35;;;18.00;99.90;;;;;;5028680;28;20036;-87
2021/07/11 04:10:30;;;;;;;4.72;4.03;;;18.80;99.90;;;;;;5030630;28;20507;-90
2021/07/11 04:12:58;;;;;;;6.63;4.30;;;19.60;99.90;;;;;;5013411;28;20114;-90
2021/07/11 04:15:24;;;;;;;6.20;4.28;;;20.10;99.90;;;;;;5031706;28;20022;-90
2021/07/11 04:17:54;;;;;;;5.82;4.53;;;20.60;99.90;;;;;;5029336;28;20056;-89
2021/07/11 04:20:23;;;;;;;5.25;4.00;;;21.00;99.90;;;;;;5029239;28;20025;-89
2021/07/11 04:22:51;;;;;;;5.50;4.32;;;21.00;99.90;;;;;;5027579;28;20397;-89
2021/07/11 04:25:18;;;;;;;6.95;4.60;;;20.50;99.90;;;;;;5029285;28;20025;-89
2021/07/11 04:27:44;;;;;;;5.45;4.90;;;19.90;99.90;;;;;;5030287;28;20045;-89
2021/07/11 04:30:10;;;;;;;6.53;5.18;;;19.50;99.90;;;;;;5031971;28;20017;-89
2021/07/11 04:32:36;;;;;;;5.90;5.25;;;19.10;99.90;;;;;;5028145;28;20033;-88
2021/07/11 04:35:03;;;;;;;6.53;3.80;;;18.80;99.90;;;;;;5026917;28;20026;-89
2021/07/11 04:37:29;;;;;;;5.53;3.90;;;18.60;99.90;;;;;;5030030;28;20034;-88
2021/07/11 04:39:55;;;;;;;5.43;3.92;;;18.40;99.90;;;;;;5027220;28;20025;-89
2021/07/11 04:42:21;;;;;;;7.30;4.07;;;18.50;99.90;;;;;;5030795;28;20492;-89
2021/07/11 04:44:47;;;;;;;4.47;4.07;;;18.80;99.90;;;;;;5030122;28;20388;-88
2021/07/11 04:47:13;;;;;;;6.63;5.00;;;19.20;99.90;;;;;;5029784;28;20040;-89
2021/07/11 04:49:39;;;;;;;7.15;4.22;;;19.20;99.90;;;;;;5029063;28;20021;-88
2021/07/11 04:52:06;;;;;;;5.80;5.30;;;19.00;99.90;;;;;;5026094;28;20504;-89
2021/07/11 04:54:33;;;;;;;6.38;5.22;;;18.80;99.90;;;;;;5027099;28;20009;-89
2021/07/11 04:56:59;;;;;;;7.75;6.95;;;18.90;99.90;;;;;;5029790;28;20153;-90
2021/07/11 04:59:25;;;;;;;7.65;6.68;;;18.60;99.90;;;;;;5029083;28;20028;-89
2021/07/11 05:01:51;;;;;;;8.48;6.85;;;18.40;99.90;;;;;;5027509;28;20033;-89
2021/07/11 05:04:16;;;;;;;6.53;5.93;;;18.30;99.90;;;;;;5026891;28;20101;-89
2021/07/11 05:06:42;;;;;;;7.88;6.43;;;18.20;99.90;;;;;;5029244;28;20056;-90
2021/07/11 05:09:08;;;;;;;7.65;6.85;;;18.20;99.90;;;;;;5031735;28;20028;-89
2021/07/11 05:11:34;;;;;;;8.82;7.07;;;18.20;99.90;;;;;;5028544;28;20021;-89
2021/07/11 05:14:01;;;;;;;7.75;6.80;;;18.30;99.90;;;;;;5028414;28;20389;-90
2021/07/11 05:16:27;;;;;;;7.10;6.40;;;18.30;99.90;;;;;;5032072;28;20374;-90
2021/07/11 05:18:53;;;;;;;8.25;7.45;;;18.30;99.90;;;;;;5033856;28;20038;-92
2021/07/11 05:21:19;;;;;;;7.95;7.15;;;18.20;99.90;;;;;;5034272;28;20151;-90
2021/07/11 05:23:44;;;;;;;8.18;7.22;;;18.20;99.90;;;;;;5035131;28;20503;-91
2021/07/11 05:26:10;;;;;;;10.75;7.45;;;18.20;99.90;;;;;;5034862;28;20048;-89
2021/07/11 05:28:39;;;;;;;8.05;6.43;;;18.10;99.90;;;;;;5032560;28;20017;-90
2021/07/11 05:31:06;;;;;;;8.15;7.30;;;18.10;99.90;;;;;;5033590;28;20055;-91
2021/07/11 05:33:32;;;;;;;7.55;6.85;;;18.10;99.90;;;;;;5034305;28;20025;-90
2021/07/11 05:35:58;;;;;;;25.58;22.23;;;18.20;99.90;;;;;;5034054;28;20053;-88
2021/07/11 05:38:24;;;;;;;7.80;7.00;;;18.30;99.90;;;;;;5032696;28;20029;-87
2021/07/11 05:40:49;;;;;;;7.07;6.47;;;18.50;99.90;;;;;;5033210;28;20374;-88
2021/07/11 05:43:16;;;;;;;6.40;5.80;;;18.60;99.90;;;;;;5031513;28;20481;-88
2021/07/11 05:45:42;;;;;;;7.00;6.30;;;18.90;99.90;;;;;;5033222;28;20031;-88
2021/07/11 05:48:08;;;;;;;8.13;6.28;;;19.00;99.90;;;;;;5034569;28;20045;-87
2021/07/11 05:50:33;;;;;;;6.78;6.07;;;19.10;99.90;;;;;;5031113;28;20021;-88
2021/07/11 05:52:59;;;;;;;6.53;5.90;;;19.20;99.90;;;;;;5027106;28;20056;-87
2021/07/11 05:55:25;;;;;;;8.38;5.97;;;19.40;99.90;;;;;;5030096;28;20029;-88
2021/07/11 05:57:50;;;;;;;6.20;5.60;;;19.40;99.90;;;;;;5031800;28;20026;-88
2021/07/11 06:00:17;;;;;;;5.93;5.43;;;19.50;99.90;;;;;;5034232;28;20032;-88
2021/07/11 06:02:42;;;;;;;5.32;4.82;;;19.70;99.90;;;;;;5032786;28;20026;-89
2021/07/11 06:05:09;;;;;;;5.72;4.88;;;19.80;99.90;;;;;;5030819;28;20111;-89
2021/07/11 06:07:35;;;;;;;5.75;5.25;;;19.90;99.90;;;;;;5031187;28;20084;-88
2021/07/11 06:10:01;;;;;;;5.60;4.57;;;20.00;99.90;;;;;;5032831;28;20022;-89
2021/07/11 06:12:27;;;;;;;6.18;4.88;;;20.10;99.90;;;;;;5033788;28;20045;-87
2021/07/11 06:14:54;;;;;;;4.90;4.50;;;20.30;99.90;;;;;;5030313;28;20049;-87
2021/07/11 06:17:20;;;;;;;4.40;3.85;;;20.30;99.90;;;;;;5029914;28;20087;-88
2021/07/11 06:19:46;;;;;;;4.93;3.67;;;20.30;99.90;;;;;;5030209;28;20476;-90
2021/07/11 06:22:11;;;;;;;3.85;3.33;;;20.30;99.90;;;;;;5029032;28;20022;-88
2021/07/11 06:24:37;;;;;;;4.28;3.03;;;20.30;99.90;;;;;;5032514;28;20388;-89
2021/07/11 06:27:03;;;;;;;5.43;3.30;;;20.40;99.90;;;;;;5030885;28;20068;-86
2021/07/11 06:29:29;;;;;;;3.20;2.90;;;20.40;99.90;;;;;;5030604;28;20025;-88
2021/07/11 06:31:54;;;;;;;4.78;2.60;;;20.40;99.90;;;;;;5058702;28;20087;-90
2021/07/11 06:34:20;;;;;;;3.03;2.72;;;20.40;99.90;;;;;;5016621;28;20030;-89
2021/07/11 06:36:46;;;;;;;6.00;3.45;;;20.40;99.90;;;;;;5029621;28;20042;-87
2021/07/11 06:39:11;;;;;;;3.00;2.70;;;20.40;99.90;;;;;;5033039;28;20030;-88
2021/07/11 06:41:37;;;;;;;2.72;2.53;;;20.50;99.90;;;;;;5030511;28;20064;-88
2021/07/11 06:44:03;;;;;;;7.07;2.50;;;20.60;99.90;;;;;;5029514;28;20111;-89
2021/07/11 06:46:28;;;;;;;2.60;2.40;;;20.70;99.90;;;;;;5030430;28;20385;-85
2021/07/11 06:48:55;;;;;;;3.90;2.72;;;20.80;99.90;;;;;;5030218;28;20726;-88
2021/07/11 06:51:20;;;;;;;3.47;2.35;;;20.90;99.90;;;;;;5033853;28;20508;-88
2021/07/11 06:53:46;;;;;;;2.35;2.15;;;21.00;99.90;;;;;;5030493;28;20034;-89
2021/07/11 06:56:12;;;;;;;4.95;2.45;;;21.00;99.90;;;;;;5028875;28;20083;-87
2021/07/11 06:58:37;;;;;;;3.15;2.83;;;21.00;99.90;;;;;;5031660;28;20049;-87
2021/07/11 07:01:03;;;;;;;3.10;2.80;;;21.00;99.90;;;;;;5031292;28;20026;-87
2021/07/11 07:03:29;;;;;;;2.75;2.42;;;20.90;99.90;;;;;;5032684;28;20028;-88
2021/07/11 07:05:54;;;;;;;2.78;2.58;;;20.90;99.90;;;;;;5030798;28;20026;-87
2021/07/11 07:08:20;;;;;;;3.45;2.58;;;21.10;99.90;;;;;;5030264;28;20030;-88
2021/07/11 07:10:46;;;;;;;4.45;2.50;;;21.20;99.90;;;;;;5030927;28;20033;-87
2021/07/11 07:13:11;;;;;;;4.35;2.75;;;21.40;99.90;;;;;;5063459;28;20028;-88
2021/07/11 07:15:37;;;;;;;6.45;2.78;;;21.30;99.90;;;;;;5032211;28;20512;-88
2021/07/11 07:18:03;;;;;;;3.80;2.88;;;21.40;99.90;;;;;;5030784;28;20120;-87
2021/07/11 07:20:29;;;;;;;4.13;2.72;;;21.50;99.90;;;;;;5031447;28;20114;-89
2021/07/11 07:22:55;;;;;;;2.70;2.50;;;21.60;99.90;;;;;;5030995;28;20071;-87
2021/07/11 07:25:20;;;;;;;2.47;2.28;;;21.70;99.90;;;;;;5029612;28;20021;-88
2021/07/11 07:27:46;;;;;;;5.28;2.30;;;21.90;99.90;;;;;;5029378;28;20034;-89
2021/07/11 07:30:20;;;;;;;3.53;2.13;;;22.00;99.90;;;;;;5032912;28;20066;-89
2021/07/11 07:32:50;;;;;;;3.35;2.22;;;22.00;99.90;;;;;;5031132;28;20028;-89
2021/07/11 07:35:17;;;;;;;5.63;1.95;;;21.90;99.90;;;;;;5028772;28;20022;-88
2021/07/11 07:37:43;;;;;;;6.70;2.70;;;21.90;99.90;;;;;;5029329;28;20045;-88
2021/07/11 07:40:10;;;;;;;3.40;1.80;;;21.90;99.90;;;;;;5030121;28;20018;-90
2021/07/11 07:42:36;;;;;;;2.30;1.60;;;21.80;99.90;;;;;;5031226;28;20676;-87
2021/07/11 07:45:02;;;;;;;1.58;1.30;;;21.90;99.90;;;;;;5032501;28;20131;-89
2021/07/11 07:47:28;;;;;;;2.30;1.25;;;22.00;99.90;;;;;;5031626;28;20107;-88
2021/07/11 07:49:54;;;;;;;2.33;1.25;;;22.10;99.90;;;;;;5029552;28;20477;-89
2021/07/11 07:52:20;;;;;;;3.63;1.60;;;22.30;99.90;;;;;;5057752;28;20087;-88
2021/07/11 07:54:45;;;;;;;5.55;1.20;;;22.50;99.90;;;;;;5028276;28;20125;-88
2021/07/11 07:57:11;;;;;;;1.30;1.02;;;22.80;99.90;;;;;;5030183;28;20021;-89
2021/07/11 07:59:37;;;;;;;2.95;1.05;;;22.90;99.90;;;;;;5030765;28;20076;-88
2021/07/11 08:02:03;;;;;;;2.33;1.00;;;22.90;99.90;;;;;;5030837;28;20022;-88
2021/07/11 08:04:29;;;;;;;2.58;1.00;;;22.80;99.90;;;;;;5029065;28;20026;-88
2021/07/11 08:06:54;;;;;;;3.38;0.90;;;22.70;99.90;;;;;;5028841;28;20083;-86
2021/07/11 08:09:21;;;;;;;1.67;1.02;;;22.80;99.90;;;;;;5032181;28;20029;-89
2021/07/11 08:11:47;;;;;;;2.80;1.20;;;23.00;99.90;;;;;;5029000;28;20030;-88
2021/07/11 08:14:13;;;;;;;1.20;1.10;;;23.20;99.90;;;;;;5030270;28;20028;-92
2021/07/11 08:16:39;;;;;;;1.30;1.20;;;23.30;99.90;;;;;;5029185;28;20055;-90
2021/07/11 08:19:05;;;;;;;3.25;1.50;;;23.40;99.90;;;;;;5028817;28;20482;-88
2021/07/11 08:21:31;;;;;;;5.40;1.20;;;23.50;99.90;;;;;;5031018;28;20362;-91
2021/07/11 08:23:57;;;;;;;4.38;1.42;;;23.70;99.90;;;;;;5028599;28;20036;-89
2021/07/11 08:26:22;;;;;;;1.80;1.25;;;23.60;99.90;;;;;;5028662;28;20033;-88
2021/07/11 08:28:48;;;;;;;1.50;1.35;;;23.70;99.90;;;;;;5024178;28;20175;-89
2021/07/11 08:31:14;;;;;;;1.33;1.10;;;23.80;99.90;;;;;;5029070;28;20026;-88
2021/07/11 08:33:39;;;;;;;2.42;1.35;;;23.90;99.90;;;;;;5030145;28;20037;-91
2021/07/11 08:36:05;;;;;;;3.40;1.13;;;24.10;99.90;;;;;;5031704;28;20052;-88
2021/07/11 08:38:31;;;;;;;8.05;1.48;;;24.00;99.90;;;;;;5060617;28;20068;-89
2021/07/11 08:40:57;;;;;;;1.58;1.20;;;23.90;99.90;;;;;;5030280;28;20427;-89
2021/07/11 08:43:23;;;;;;;1.30;1.20;;;24.00;99.90;;;;;;5027987;28;20469;-89
2021/07/11 08:45:49;;;;;;;2.35;1.50;;;24.10;99.90;;;;;;5029805;28;20119;-88
2021/07/11 08:48:15;;;;;;;13.10;11.73;;;24.10;99.90;;;;;;5031261;28;20042;-88
2021/07/11 08:50:41;;;;;;;25.13;22.55;;;23.80;99.90;;;;;;5029756;28;20026;-89
2021/07/11 08:53:14;;;;;;;5.20;2.00;;;23.60;99.90;;;;;;5029625;28;20026;-90
2021/07/11 08:55:40;;;;;;;1.38;1.00;;;23.70;99.90;;;;;;5030329;28;20056;-89
2021/07/11 08:58:06;;;;;;;2.33;1.23;;;23.80;99.90;;;;;;5029813;28;20058;-89
2021/07/11 09:00:35;;;;;;;6.50;1.52;;;23.80;99.90;;;;;;5029770;28;20030;-89
2021/07/11 09:03:02;;;;;;;1.40;1.30;;;24.00;99.90;;;;;;5031399;28;20057;-89
2021/07/11 09:05:31;;;;;;;2.13;1.42;;;23.90;99.90;;;;;;5023674;28;20042;-90
2021/07/11 09:08:05;;;;;;;1.50;1.40;;;23.90;99.90;;;;;;5030657;28;20037;-91
2021/07/11 09:10:33;;;;;;;5.53;1.38;;;23.90;99.90;;;;;;5030785;28;20028;-90
2021/07/11 09:13:00;;;;;;;10.45;1.67;;;24.00;99.90;;;;;;5028275;28;20030;-91
2021/07/11 09:15:33;;;;;;;2.35;1.13;;;24.00;99.90;;;;;;5030769;28;20108;-89
2021/07/11 09:17:59;;;;;;;6.03;1.30;;;24.10;99.90;;;;;;5030967;28;20018;-90
2021/07/11 09:20:25;;;;;;;2.60;1.05;;;24.10;99.90;;;;;;5029436;28;20477;-90
2021/07/11 09:23:01;;;;;;;2.53;1.00;;;24.10;99.90;;;;;;5029652;28;20553;-91
2021/07/11 09:25:27;;;;;;;0.75;0.73;;;24.20;99.90;;;;;;5028379;28;20021;-90
2021/07/11 09:27:53;;;;;;;3.03;1.10;;;24.40;99.90;;;;;;5027783;28;20084;-92
2021/07/11 09:30:19;;;;;;;1.30;1.15;;;24.40;99.90;;;;;;5029728;28;20029;-89
2021/07/11 09:32:50;;;;;;;1.88;1.33;;;24.20;99.90;;;;;;5027785;28;20078;-88
2021/07/11 09:35:18;;;;;;;1.30;1.20;;;24.40;99.90;;;;;;5015778;28;20037;-90
2021/07/11 09:37:47;;;;;;;2.03;1.60;;;24.50;99.90;;;;;;5022044;28;20120;-90
2021/07/11 09:40:16;;;;;;;2.05;1.52;;;24.40;99.90;;;;;;5027792;28;20037;-90
2021/07/11 09:42:44;;;;;;;2.03;1.20;;;24.20;99.90;;;;;;5029591;28;20041;-89
2021/07/11 09:45:17;;;;;;;1.48;1.20;;;24.10;99.90;;;;;;5031175;28;20279;-91
2021/07/11 09:47:45;;;;;;;1.88;1.42;;;24.20;99.90;;;;;;5028044;28;20037;-89
2021/07/11 09:50:13;;;;;;;4.25;1.30;;;24.00;99.90;;;;;;5029758;28;20025;-90
2021/07/11 09:52:44;;;;;;;1.35;1.08;;;23.90;99.90;;;;;;5029419;28;20048;-89
2021/07/11 09:55:16;;;;;;;2.75;1.33;;;23.70;99.90;;;;;;5028287;28;20045;-90
2021/07/11 09:57:48;;;;;;;1.40;1.30;;;23.70;99.90;;;;;;5028926;28;20102;-90
2021/07/11 10:00:35;;;;;;;2.03;1.02;;;23.70;99.90;;;;;;5031161;28;20024;-88
2021/07/11 10:03:05;;;;;;;2.65;1.45;;;23.80;99.90;;;;;;5033438;28;20022;-89
2021/07/11 10:05:32;;;;;;;2.15;1.83;;;24.00;99.90;;;;;;5029875;28;20029;-88
2021/07/11 10:07:59;;;;;;;4.38;3.92;;;24.10;99.90;;;;;;5031160;28;20566;-90
2021/07/11 10:10:28;;;;;;;3.47;2.28;;;24.20;99.90;;;;;;5025810;28;20048;-89
2021/07/11 10:12:54;;;;;;;1.65;1.10;;;24.20;99.90;;;;;;5016122;28;20366;-90
2021/07/11 10:15:22;;;;;;;2.50;1.95;;;24.30;99.90;;;;;;5030360;28;20032;-89
2021/07/11 10:17:57;;;;;;;2.85;1.58;;;24.50;99.90;;;;;;5030924;28;20026;-89
2021/07/11 10:20:30;;;;;;;1.40;1.30;;;24.60;99.90;;;;;;5029642;28;20026;-87
2021/07/11 10:22:56;;;;;;;1.60;1.50;;;24.60;99.90;;;;;;5032646;28;20485;-89
2021/07/11 10:25:24;;;;;;;1.35;1.13;;;24.70;99.90;;;;;;5032474;28;20022;-89
2021/07/11 10:28:25;;;;;;;1.88;1.45;;;24.80;99.90;;;;;;5030101;28;20059;-87
2021/07/11 10:30:51;;;;;;;2.60;2.20;;;25.00;99.90;;;;;;5017291;28;20248;-88
2021/07/11 10:33:20;;;;;;;22.33;20.17;;;25.00;99.90;;;;;;5017322;28;20073;-89
2021/07/11 10:36:02;;;;;;;3.30;1.63;;;25.00;99.90;;;;;;5031980;28;20084;-88
2021/07/11 10:38:36;;;;;;;1.98;0.85;;;24.70;99.90;;;;;;5010026;28;20029;-89
2021/07/11 10:41:19;;;;;;;2.05;1.20;;;24.80;99.90;;;;;;5010597;28;20033;-90
2021/07/11 10:44:09;;;;;;;2.83;1.10;;;24.90;99.90;;;;;;5029213;28;20111;-89
2021/07/11 10:46:41;;;;;;;1.30;1.20;;;24.90;99.90;;;;;;5022926;28;20042;-90
2021/07/11 10:49:20;;;;;;;3.55;1.17;;;25.00;99.90;;;;;;5020406;28;20075;-89
2021/07/11 10:51:49;;;;;;;2.07;1.50;;;25.10;99.90;;;;;;5016258;28;20021;-88
2021/07/11 10:54:34;;;;;;;2.47;1.23;;;25.20;99.90;;;;;;5016374;28;20037;-90
2021/07/11 10:57:08;;;;;;;2.78;1.23;;;25.30;99.90;;;;;;5020377;28;20460;-90
2021/07/11 10:59:36;;;;;;;1.50;1.35;;;25.30;99.90;;;;;;5014571;28;20038;-88
2021/07/11 11:02:22;;;;;;;4.03;1.10;;;25.30;99.90;;;;;;5027044;28;20053;-89
2021/07/11 11:05:12;;;;;;;5.78;1.52;;;25.30;99.90;;;;;;5008033;28;20044;-88
2021/07/11 11:07:43;;;;;;;1.42;1.00;;;25.40;99.90;;;;;;5032293;28;20060;-90
2021/07/11 11:10:24;;;;;;;1.10;1.00;;;25.40;99.90;;;;;;5031465;28;20489;-90
2021/07/11 11:13:08;;;;;;;1.55;1.45;;;25.30;99.90;;;;;;5030072;28;20034;-91
2021/07/11 11:15:37;;;;;;;1.85;1.17;;;25.20;99.90;;;;;;5030019;28;20033;-89
2021/07/11 11:18:27;;;;;;;1.20;1.10;;;25.30;99.90;;;;;;5032861;28;20022;-90
2021/07/11 11:21:03;;;;;;;3.35;1.10;;;25.50;99.90;;;;;;5030538;28;20386;-89
2021/07/11 11:23:41;;;;;;;1.95;1.27;;;25.50;99.90;;;;;;5032111;28;20029;-88
2021/07/11 11:26:10;;;;;;;2.22;1.25;;;25.40;99.90;;;;;;5030476;28;20029;-91
2021/07/11 11:28:39;;;;;;;2.03;1.00;;;25.50;99.90;;;;;;5031515;28;20087;-89
2021/07/11 11:31:09;;;;;;;1.52;1.10;;;25.50;99.90;;;;;;5030129;28;20385;-89
2021/07/11 11:33:49;;;;;;;2.40;1.13;;;25.60;99.90;;;;;;5031746;28;20041;-91
2021/07/11 11:36:55;;;;;;;2.22;1.08;;;25.80;99.90;;;;;;5032000;28;20469;-89
2021/07/11 11:39:31;;;;;;;3.15;1.30;;;25.80;99.90;;;;;;5028800;28;20115;-89
2021/07/11 11:41:57;;;;;;;1.48;1.08;;;25.90;99.90;;;;;;5031901;28;20028;-89
2021/07/11 11:44:25;;;;;;;2.88;1.23;;;26.00;99.90;;;;;;5028997;28;20380;-89
2021/07/11 11:46:56;;;;;;;2.03;1.38;;;26.00;99.90;;;;;;5029225;28;20037;-88
2021/07/11 11:49:24;;;;;;;3.22;1.25;;;26.00;99.90;;;;;;5030911;28;20030;-88
2021/07/11 11:51:55;;;;;;;1.70;1.00;;;26.10;99.90;;;;;;5030384;28;20091;-89
2021/07/11 11:54:41;;;;;;;2.03;1.40;;;26.20;99.90;;;;;;5027163;28;20485;-89
2021/07/11 11:57:08;;;;;;;1.83;1.20;;;26.00;99.00;;;;;;5030678;28;20030;-90
2021/07/11 11:59:35;;;;;;;2.33;1.05;;;26.10;99.70;;;;;;5029589;28;20026;-89
2021/07/11 12:02:06;;;;;;;1.10;1.00;;;26.20;99.90;;;;;;5028432;28;20025;-90
2021/07/11 12:04:32;;;;;;;1.13;1.00;;;26.20;99.70;;;;;;5029149;28;20031;-90
2021/07/11 12:07:00;;;;;;;2.95;1.10;;;26.30;99.90;;;;;;5029985;28;20033;-90
2021/07/11 12:09:31;;;;;;;3.97;1.10;;;26.50;99.10;;;;;;5032049;28;20033;-90
2021/07/11 12:11:57;;;;;;;1.65;0.77;;;26.40;98.70;;;;;;5030192;28;20029;-89
2021/07/11 12:14:24;;;;;;;2.08;0.70;;;26.50;99.20;;;;;;5029132;28;20060;-89
2021/07/11 12:17:02;;;;;;;1.30;0.90;;;26.50;99.30;;;;;;5030432;28;20029;-90
2021/07/11 12:19:28;;;;;;;1.10;1.00;;;26.50;98.90;;;;;;5030635;28;20021;-90
2021/07/11 12:21:56;;;;;;;2.80;0.85;;;26.50;99.50;;;;;;5030125;28;20017;-90
2021/07/11 12:24:26;;;;;;;2.97;0.93;;;26.60;99.50;;;;;;5026214;28;20527;-90
2021/07/11 12:26:59;;;;;;;3.28;1.00;;;26.70;98.30;;;;;;5030493;28;20132;-90
2021/07/11 12:29:30;;;;;;;0.82;0.63;;;26.70;97.90;;;;;;5028761;28;20014;-89
2021/07/11 12:32:02;;;;;;;2.85;0.70;;;26.60;98.50;;;;;;5058952;28;20022;-88
2021/07/11 12:34:28;;;;;;;1.42;0.90;;;26.60;98.70;;;;;;5019230;28;20021;-90
2021/07/11 12:37:03;;;;;;;1.23;0.90;;;26.70;98.80;;;;;;5028692;28;20404;-91
2021/07/11 12:39:29;;;;;;;2.15;0.80;;;26.70;99.20;;;;;;5028425;28;20029;-88
2021/07/11 12:41:56;;;;;;;3.42;0.90;;;26.70;99.20;;;;;;5031916;28;20164;-89
2021/07/11 12:44:37;;;;;;;1.10;0.80;;;26.70;97.50;;;;;;5030195;28;20067;-90
2021/07/11 12:47:10;;;;;;;2.50;0.90;;;26.70;98.10;;;;;;5029188;28;20125;-90
2021/07/11 12:49:36;;;;;;;1.08;0.82;;;26.60;97.80;;;;;;5030761;28;20041;-89
2021/07/11 12:52:08;;;;;;;3.70;0.63;;;26.70;99.40;;;;;;5031149;28;20037;-89
2021/07/11 12:54:34;;;;;;;3.53;1.02;;;26.80;98.80;;;;;;5031300;28;20044;-90